sensor_id;sensor_type;location;lat;lon;timestamp;P1;durP1;ratioP1;P2;durP2;ratioP2
5742;SDS011;2896;53.500;10.020;2022-08-18T00:01:45;4.50;;;4.30;;
5742;SDS011;2896;53.500;10.020;2022-08-18T00:04:15;5.67;;;5.27;;
5742;SDS011;2896;53.500;10.020;2022-08-18T00:06:42;5.80;;;5.20;;
5742;SDS011;2896;53.500;10.020;2022-08-18T00:09:09;4.97;;;4.53;;
5742;SDS011;2896;53.500;10.020;2022-08-18T00:11:37;5.10;;;4.80;;
5742;SDS011;2896;53.500;10.020;2022-08-18T00:14:08;5.07;;;4.70;;
5742;SDS011;2896;53.500;10.020;2022-08-18T00:16:37;5.40;;;5.10;;
5742;SDS011;2896;53.500;10.020;2022-08-18T00:19:03;5.90;;;5.40;;
5742;SDS011;2896;53.500;10.020;2022-08-18T00:21:31;6.07;;;5.50;;
5742;SDS011;2896;53.500;10.020;2022-08-18T00:23:58;8.17;;;6.70;;
5742;SDS011;2896;53.500;10.020;2022-08-18T00:26:24;7.47;;;6.77;;
5742;SDS011;2896;53.500;10.020;2022-08-18T00:28:51;8.33;;;7.73;;
5742;SDS011;2896;53.500;10.020;2022-08-18T00:31:19;8.10;;;7.30;;
5742;SDS011;2896;53.500;10.020;2022-08-18T00:33:45;9.53;;;8.77;;
5742;SDS011;2896;53.500;10.020;2022-08-18T00:36:12;9.20;;;8.30;;
5742;SDS011;2896;53.500;10.020;2022-08-18T00:38:39;8.83;;;8.20;;
5742;SDS011;2896;53.500;10.020;2022-08-18T00:41:05;12.23;;;9.00;;
5742;SDS011;2896;53.500;10.020;2022-08-18T00:43:35;9.87;;;8.97;;
5742;SDS011;2896;53.500;10.020;2022-08-18T00:46:06;9.60;;;8.60;;
5742;SDS011;2896;53.500;10.020;2022-08-18T00:48:35;12.90;;;9.73;;
5742;SDS011;2896;53.500;10.020;2022-08-18T00:51:03;11.43;;;10.17;;
5742;SDS011;2896;53.500;10.020;2022-08-18T00:53:36;13.47;;;10.60;;
5742;SDS011;2896;53.500;10.020;2022-08-18T00:56:07;10.73;;;9.70;;
5742;SDS011;2896;53.500;10.020;2022-08-18T00:58:37;13.87;;;10.73;;
5742;SDS011;2896;53.500;10.020;2022-08-18T01:01:08;9.67;;;8.90;;
5742;SDS011;2896;53.500;10.020;2022-08-18T01:03:39;12.00;;;8.77;;
5742;SDS011;2896;53.500;10.020;2022-08-18T01:06:10;9.67;;;8.80;;
5742;SDS011;2896;53.500;10.020;2022-08-18T01:08:41;9.30;;;8.50;;
5742;SDS011;2896;53.500;10.020;2022-08-18T01:11:08;9.67;;;8.80;;
5742;SDS011;2896;53.500;10.020;2022-08-18T01:13:35;11.47;;;10.10;;
5742;SDS011;2896;53.500;10.020;2022-08-18T01:16:02;8.10;;;7.50;;
5742;SDS011;2896;53.500;10.020;2022-08-18T01:18:51;7.97;;;7.27;;
5742;SDS011;2896;53.500;10.020;2022-08-18T01:21:37;8.70;;;7.90;;
5742;SDS011;2896;53.500;10.020;2022-08-18T01:24:18;8.43;;;7.83;;
5742;SDS011;2896;53.500;10.020;2022-08-18T01:27:09;8.87;;;8.17;;
5742;SDS011;2896;53.500;10.020;2022-08-18T01:29:39;8.80;;;7.93;;
5742;SDS011;2896;53.500;10.020;2022-08-18T01:32:05;8.93;;;8.33;;
5742;SDS011;2896;53.500;10.020;2022-08-18T01:34:32;8.83;;;7.93;;
5742;SDS011;2896;53.500;10.020;2022-08-18T01:36:58;9.40;;;8.60;;
5742;SDS011;2896;53.500;10.020;2022-08-18T01:39:30;8.90;;;8.10;;
5742;SDS011;2896;53.500;10.020;2022-08-18T01:41:56;9.67;;;8.67;;
5742;SDS011;2896;53.500;10.020;2022-08-18T01:44:23;9.57;;;8.87;;
5742;SDS011;2896;53.500;10.020;2022-08-18T01:46:51;10.00;;;9.10;;
5742;SDS011;2896;53.500;10.020;2022-08-18T01:49:18;9.17;;;8.27;;
5742;SDS011;2896;53.500;10.020;2022-08-18T01:51:44;10.00;;;8.97;;
5742;SDS011;2896;53.500;10.020;2022-08-18T01:54:13;8.50;;;7.90;;
5742;SDS011;2896;53.500;10.020;2022-08-18T01:56:41;9.90;;;8.90;;
5742;SDS011;2896;53.500;10.020;2022-08-18T01:59:09;9.67;;;8.83;;
5742;SDS011;2896;53.500;10.020;2022-08-18T02:01:38;10.40;;;9.43;;
5742;SDS011;2896;53.500;10.020;2022-08-18T02:04:05;9.90;;;9.00;;
5742;SDS011;2896;53.500;10.020;2022-08-18T02:06:34;9.37;;;8.57;;
5742;SDS011;2896;53.500;10.020;2022-08-18T02:09:00;8.90;;;8.23;;
5742;SDS011;2896;53.500;10.020;2022-08-18T02:11:27;11.03;;;9.93;;
5742;SDS011;2896;53.500;10.020;2022-08-18T02:13:55;9.97;;;9.17;;
5742;SDS011;2896;53.500;10.020;2022-08-18T02:16:21;10.17;;;9.27;;
5742;SDS011;2896;53.500;10.020;2022-08-18T02:18:48;9.13;;;8.43;;
5742;SDS011;2896;53.500;10.020;2022-08-18T02:21:16;10.20;;;9.40;;
5742;SDS011;2896;53.500;10.020;2022-08-18T02:23:45;14.00;;;11.70;;
5742;SDS011;2896;53.500;10.020;2022-08-18T02:26:14;12.13;;;11.13;;
5742;SDS011;2896;53.500;10.020;2022-08-18T02:28:42;11.73;;;10.73;;
5742;SDS011;2896;53.500;10.020;2022-08-18T02:31:11;11.17;;;10.33;;
5742;SDS011;2896;53.500;10.020;2022-08-18T02:33:39;14.23;;;11.57;;
5742;SDS011;2896;53.500;10.020;2022-08-18T02:36:06;13.57;;;12.30;;
5742;SDS011;2896;53.500;10.020;2022-08-18T02:38:35;11.73;;;10.63;;
5742;SDS011;2896;53.500;10.020;2022-08-18T02:41:02;13.30;;;12.10;;
5742;SDS011;2896;53.500;10.020;2022-08-18T02:43:32;12.60;;;11.60;;
5742;SDS011;2896;53.500;10.020;2022-08-18T02:45:58;13.60;;;12.40;;
5742;SDS011;2896;53.500;10.020;2022-08-18T02:48:26;13.93;;;12.50;;
5742;SDS011;2896;53.500;10.020;2022-08-18T02:50:58;12.60;;;11.60;;
5742;SDS011;2896;53.500;10.020;2022-08-18T02:53:26;12.33;;;11.33;;
5742;SDS011;2896;53.500;10.020;2022-08-18T02:55:53;13.73;;;12.63;;
5742;SDS011;2896;53.500;10.020;2022-08-18T02:58:20;13.67;;;12.47;;
5742;SDS011;2896;53.500;10.020;2022-08-18T03:00:46;13.77;;;12.67;;
5742;SDS011;2896;53.500;10.020;2022-08-18T03:03:13;18.47;;;14.80;;
5742;SDS011;2896;53.500;10.020;2022-08-18T03:05:41;17.00;;;15.37;;
5742;SDS011;2896;53.500;10.020;2022-08-18T03:08:08;15.90;;;14.40;;
5742;SDS011;2896;53.500;10.020;2022-08-18T03:10:35;17.30;;;15.63;;
5742;SDS011;2896;53.500;10.020;2022-08-18T03:13:03;15.87;;;14.20;;
5742;SDS011;2896;53.500;10.020;2022-08-18T03:15:30;15.20;;;13.90;;
5742;SDS011;2896;53.500;10.020;2022-08-18T03:17:57;14.03;;;12.67;;
5742;SDS011;2896;53.500;10.020;2022-08-18T03:20:25;16.50;;;15.00;;
5742;SDS011;2896;53.500;10.020;2022-08-18T03:22:53;15.53;;;14.10;;
5742;SDS011;2896;53.500;10.020;2022-08-18T03:25:19;13.90;;;12.50;;
5742;SDS011;2896;53.500;10.020;2022-08-18T03:27:46;13.97;;;12.77;;
5742;SDS011;2896;53.500;10.020;2022-08-18T03:30:13;15.10;;;13.80;;
5742;SDS011;2896;53.500;10.020;2022-08-18T03:32:39;15.30;;;13.80;;
5742;SDS011;2896;53.500;10.020;2022-08-18T03:35:06;14.43;;;13.23;;
5742;SDS011;2896;53.500;10.020;2022-08-18T03:37:33;16.07;;;13.80;;
5742;SDS011;2896;53.500;10.020;2022-08-18T03:40:02;15.60;;;14.10;;
5742;SDS011;2896;53.500;10.020;2022-08-18T03:42:29;15.97;;;14.47;;
5742;SDS011;2896;53.500;10.020;2022-08-18T03:44:55;15.07;;;13.80;;
5742;SDS011;2896;53.500;10.020;2022-08-18T03:47:22;14.70;;;13.47;;
5742;SDS011;2896;53.500;10.020;2022-08-18T03:49:49;14.97;;;13.67;;
5742;SDS011;2896;53.500;10.020;2022-08-18T03:52:15;18.13;;;16.53;;
5742;SDS011;2896;53.500;10.020;2022-08-18T03:54:42;14.77;;;13.50;;
5742;SDS011;2896;53.500;10.020;2022-08-18T03:57:10;18.13;;;16.43;;
5742;SDS011;2896;53.500;10.020;2022-08-18T03:59:38;18.73;;;16.90;;
5742;SDS011;2896;53.500;10.020;2022-08-18T04:02:07;16.20;;;14.70;;
5742;SDS011;2896;53.500;10.020;2022-08-18T04:04:35;14.53;;;13.13;;
5742;SDS011;2896;53.500;10.020;2022-08-18T04:07:04;15.90;;;14.50;;
5742;SDS011;2896;53.500;10.020;2022-08-18T04:09:33;13.83;;;12.63;;
5742;SDS011;2896;53.500;10.020;2022-08-18T04:12:03;15.30;;;13.90;;
5742;SDS011;2896;53.500;10.020;2022-08-18T04:14:38;16.53;;;15.07;;
5742;SDS011;2896;53.500;10.020;2022-08-18T04:17:06;15.70;;;14.40;;
5742;SDS011;2896;53.500;10.020;2022-08-18T04:19:33;16.90;;;15.40;;
5742;SDS011;2896;53.500;10.020;2022-08-18T04:22:01;16.20;;;14.67;;
5742;SDS011;2896;53.500;10.020;2022-08-18T04:24:29;15.33;;;13.80;;
5742;SDS011;2896;53.500;10.020;2022-08-18T04:26:58;17.83;;;16.23;;
5742;SDS011;2896;53.500;10.020;2022-08-18T04:29:26;17.03;;;15.43;;
5742;SDS011;2896;53.500;10.020;2022-08-18T04:31:55;20.03;;;18.10;;
5742;SDS011;2896;53.500;10.020;2022-08-18T04:34:21;23.40;;;20.90;;
5742;SDS011;2896;53.500;10.020;2022-08-18T04:36:49;18.10;;;16.30;;
5742;SDS011;2896;53.500;10.020;2022-08-18T04:39:17;18.60;;;14.77;;
5742;SDS011;2896;53.500;10.020;2022-08-18T04:41:45;17.20;;;15.73;;
5742;SDS011;2896;53.500;10.020;2022-08-18T04:44:12;21.97;;;19.70;;
5742;SDS011;2896;53.500;10.020;2022-08-18T04:46:42;18.03;;;16.30;;
5742;SDS011;2896;53.500;10.020;2022-08-18T04:49:13;18.73;;;16.70;;
5742;SDS011;2896;53.500;10.020;2022-08-18T04:51:41;15.80;;;14.40;;
5742;SDS011;2896;53.500;10.020;2022-08-18T04:54:29;15.93;;;14.43;;
5742;SDS011;2896;53.500;10.020;2022-08-18T04:56:55;16.90;;;14.90;;
5742;SDS011;2896;53.500;10.020;2022-08-18T04:59:22;16.97;;;15.47;;
5742;SDS011;2896;53.500;10.020;2022-08-18T05:01:49;20.37;;;15.47;;
5742;SDS011;2896;53.500;10.020;2022-08-18T05:04:17;17.13;;;15.40;;
5742;SDS011;2896;53.500;10.020;2022-08-18T05:06:44;19.13;;;17.43;;
5742;SDS011;2896;53.500;10.020;2022-08-18T05:09:12;15.20;;;13.80;;
5742;SDS011;2896;53.500;10.020;2022-08-18T05:11:40;15.03;;;13.53;;
5742;SDS011;2896;53.500;10.020;2022-08-18T05:14:08;16.10;;;14.60;;
5742;SDS011;2896;53.500;10.020;2022-08-18T05:16:35;18.27;;;16.67;;
5742;SDS011;2896;53.500;10.020;2022-08-18T05:19:02;15.10;;;13.80;;
5742;SDS011;2896;53.500;10.020;2022-08-18T05:21:31;16.40;;;14.90;;
5742;SDS011;2896;53.500;10.020;2022-08-18T05:24:01;18.23;;;16.47;;
5742;SDS011;2896;53.500;10.020;2022-08-18T05:26:28;16.80;;;15.30;;
5742;SDS011;2896;53.500;10.020;2022-08-18T05:28:56;22.50;;;20.20;;
5742;SDS011;2896;53.500;10.020;2022-08-18T05:31:23;18.83;;;17.13;;
5742;SDS011;2896;53.500;10.020;2022-08-18T05:33:51;18.83;;;16.00;;
5742;SDS011;2896;53.500;10.020;2022-08-18T05:36:24;18.70;;;16.83;;
5742;SDS011;2896;53.500;10.020;2022-08-18T05:39:05;17.83;;;16.03;;
5742;SDS011;2896;53.500;10.020;2022-08-18T05:41:37;28.00;;;23.53;;
5742;SDS011;2896;53.500;10.020;2022-08-18T05:44:07;30.03;;;23.60;;
5742;SDS011;2896;53.500;10.020;2022-08-18T05:46:39;20.73;;;18.50;;
5742;SDS011;2896;53.500;10.020;2022-08-18T05:49:09;19.40;;;17.50;;
5742;SDS011;2896;53.500;10.020;2022-08-18T05:51:39;21.00;;;18.70;;
5742;SDS011;2896;53.500;10.020;2022-08-18T05:54:10;19.03;;;17.23;;
5742;SDS011;2896;53.500;10.020;2022-08-18T05:56:56;21.80;;;19.67;;
5742;SDS011;2896;53.500;10.020;2022-08-18T05:59:27;20.33;;;17.40;;
5742;SDS011;2896;53.500;10.020;2022-08-18T06:01:59;18.33;;;16.53;;
5742;SDS011;2896;53.500;10.020;2022-08-18T06:04:36;23.43;;;20.93;;
5742;SDS011;2896;53.500;10.020;2022-08-18T06:07:09;26.73;;;20.43;;
5742;SDS011;2896;53.500;10.020;2022-08-18T06:09:39;26.53;;;21.43;;
5742;SDS011;2896;53.500;10.020;2022-08-18T06:12:12;23.90;;;19.80;;
5742;SDS011;2896;53.500;10.020;2022-08-18T06:14:46;18.43;;;16.63;;
5742;SDS011;2896;53.500;10.020;2022-08-18T06:17:17;23.00;;;19.10;;
5742;SDS011;2896;53.500;10.020;2022-08-18T06:20:06;19.43;;;17.63;;
5742;SDS011;2896;53.500;10.020;2022-08-18T06:22:42;26.70;;;22.40;;
5742;SDS011;2896;53.500;10.020;2022-08-18T06:25:20;21.17;;;18.93;;
5742;SDS011;2896;53.500;10.020;2022-08-18T06:27:54;21.27;;;19.10;;
5742;SDS011;2896;53.500;10.020;2022-08-18T06:30:26;22.57;;;20.27;;
5742;SDS011;2896;53.500;10.020;2022-08-18T06:33:09;25.03;;;20.73;;
5742;SDS011;2896;53.500;10.020;2022-08-18T06:35:49;31.33;;;22.23;;
5742;SDS011;2896;53.500;10.020;2022-08-18T06:38:25;27.90;;;24.07;;
5742;SDS011;2896;53.500;10.020;2022-08-18T06:41:08;29.63;;;22.43;;
5742;SDS011;2896;53.500;10.020;2022-08-18T06:43:37;35.80;;;29.67;;
5742;SDS011;2896;53.500;10.020;2022-08-18T06:46:09;44.90;;;35.47;;
5742;SDS011;2896;53.500;10.020;2022-08-18T06:48:42;53.77;;;32.47;;
5742;SDS011;2896;53.500;10.020;2022-08-18T06:51:14;54.20;;;37.73;;
5742;SDS011;2896;53.500;10.020;2022-08-18T06:53:49;61.83;;;38.27;;
5742;SDS011;2896;53.500;10.020;2022-08-18T06:56:24;60.47;;;40.87;;
5742;SDS011;2896;53.500;10.020;2022-08-18T06:59:03;72.13;;;43.13;;
5742;SDS011;2896;53.500;10.020;2022-08-18T07:01:43;82.63;;;43.60;;
5742;SDS011;2896;53.500;10.020;2022-08-18T07:06:58;82.80;;;45.00;;
5742;SDS011;2896;53.500;10.020;2022-08-18T07:09:39;77.20;;;41.17;;
5742;SDS011;2896;53.500;10.020;2022-08-18T07:12:07;76.63;;;41.73;;
5742;SDS011;2896;53.500;10.020;2022-08-18T07:14:42;72.93;;;42.63;;
5742;SDS011;2896;53.500;10.020;2022-08-18T07:17:11;63.67;;;39.50;;
5742;SDS011;2896;53.500;10.020;2022-08-18T07:19:49;76.13;;;39.60;;
5742;SDS011;2896;53.500;10.020;2022-08-18T07:22:24;70.03;;;39.37;;
5742;SDS011;2896;53.500;10.020;2022-08-18T07:24:53;63.50;;;38.27;;
5742;SDS011;2896;53.500;10.020;2022-08-18T07:27:29;57.53;;;35.27;;
5742;SDS011;2896;53.500;10.020;2022-08-18T07:30:08;62.60;;;36.70;;
5742;SDS011;2896;53.500;10.020;2022-08-18T07:32:38;49.37;;;34.83;;
5742;SDS011;2896;53.500;10.020;2022-08-18T07:35:09;57.27;;;39.00;;
5742;SDS011;2896;53.500;10.020;2022-08-18T07:37:42;63.83;;;39.90;;
5742;SDS011;2896;53.500;10.020;2022-08-18T07:40:20;62.47;;;37.97;;
5742;SDS011;2896;53.500;10.020;2022-08-18T07:42:51;65.33;;;38.50;;
5742;SDS011;2896;53.500;10.020;2022-08-18T07:45:22;74.77;;;39.83;;
5742;SDS011;2896;53.500;10.020;2022-08-18T07:47:55;83.13;;;39.30;;
5742;SDS011;2896;53.500;10.020;2022-08-18T07:50:27;76.27;;;38.83;;
5742;SDS011;2896;53.500;10.020;2022-08-18T07:53:00;74.67;;;37.87;;
5742;SDS011;2896;53.500;10.020;2022-08-18T07:55:38;72.60;;;38.67;;
5742;SDS011;2896;53.500;10.020;2022-08-18T07:58:13;67.97;;;36.73;;
5742;SDS011;2896;53.500;10.020;2022-08-18T08:00:47;71.07;;;38.33;;
5742;SDS011;2896;53.500;10.020;2022-08-18T08:03:23;65.70;;;34.90;;
5742;SDS011;2896;53.500;10.020;2022-08-18T08:05:59;54.70;;;32.57;;
5742;SDS011;2896;53.500;10.020;2022-08-18T08:08:30;57.27;;;33.30;;
5742;SDS011;2896;53.500;10.020;2022-08-18T08:11:10;63.70;;;34.17;;
5742;SDS011;2896;53.500;10.020;2022-08-18T08:13:48;55.20;;;33.00;;
5742;SDS011;2896;53.500;10.020;2022-08-18T08:16:25;62.93;;;35.37;;
5742;SDS011;2896;53.500;10.020;2022-08-18T08:19:02;54.97;;;33.10;;
5742;SDS011;2896;53.500;10.020;2022-08-18T08:21:38;63.23;;;36.43;;
5742;SDS011;2896;53.500;10.020;2022-08-18T08:24:10;56.07;;;33.80;;
5742;SDS011;2896;53.500;10.020;2022-08-18T08:26:47;63.97;;;35.80;;
5742;SDS011;2896;53.500;10.020;2022-08-18T08:29:21;65.10;;;37.30;;
5742;SDS011;2896;53.500;10.020;2022-08-18T08:32:00;60.43;;;33.40;;
5742;SDS011;2896;53.500;10.020;2022-08-18T08:34:30;58.37;;;32.40;;
5742;SDS011;2896;53.500;10.020;2022-08-18T08:37:03;57.33;;;32.33;;
5742;SDS011;2896;53.500;10.020;2022-08-18T08:39:34;46.40;;;29.63;;
5742;SDS011;2896;53.500;10.020;2022-08-18T08:42:07;52.60;;;33.03;;
5742;SDS011;2896;53.500;10.020;2022-08-18T08:44:40;44.73;;;30.07;;
5742;SDS011;2896;53.500;10.020;2022-08-18T08:47:14;39.23;;;28.27;;
5742;SDS011;2896;53.500;10.020;2022-08-18T08:49:47;42.83;;;30.00;;
5742;SDS011;2896;53.500;10.020;2022-08-18T08:52:18;44.20;;;29.30;;
5742;SDS011;2896;53.500;10.020;2022-08-18T08:54:51;44.33;;;28.67;;
5742;SDS011;2896;53.500;10.020;2022-08-18T08:57:32;37.70;;;27.93;;
5742;SDS011;2896;53.500;10.020;2022-08-18T09:00:04;43.23;;;29.00;;
5742;SDS011;2896;53.500;10.020;2022-08-18T09:02:37;42.40;;;28.20;;
5742;SDS011;2896;53.500;10.020;2022-08-18T09:05:17;38.20;;;26.93;;
5742;SDS011;2896;53.500;10.020;2022-08-18T09:07:55;32.90;;;25.63;;
5742;SDS011;2896;53.500;10.020;2022-08-18T09:10:48;30.60;;;23.00;;
5742;SDS011;2896;53.500;10.020;2022-08-18T09:13:37;35.93;;;24.67;;
5742;SDS011;2896;53.500;10.020;2022-08-18T09:16:21;34.30;;;22.97;;
5742;SDS011;2896;53.500;10.020;2022-08-18T09:19:04;36.40;;;24.07;;
5742;SDS011;2896;53.500;10.020;2022-08-18T09:21:40;39.73;;;26.00;;
5742;SDS011;2896;53.500;10.020;2022-08-18T09:24:17;42.30;;;27.73;;
5742;SDS011;2896;53.500;10.020;2022-08-18T09:26:49;36.30;;;26.23;;
5742;SDS011;2896;53.500;10.020;2022-08-18T09:29:24;37.60;;;24.60;;
5742;SDS011;2896;53.500;10.020;2022-08-18T09:35:02;36.47;;;25.20;;
5742;SDS011;2896;53.500;10.020;2022-08-18T09:37:40;46.23;;;26.47;;
5742;SDS011;2896;53.500;10.020;2022-08-18T09:40:32;29.70;;;21.83;;
5742;SDS011;2896;53.500;10.020;2022-08-18T09:43:23;35.77;;;26.80;;
5742;SDS011;2896;53.500;10.020;2022-08-18T09:45:59;41.13;;;26.00;;
5742;SDS011;2896;53.500;10.020;2022-08-18T09:48:29;41.20;;;28.17;;
5742;SDS011;2896;53.500;10.020;2022-08-18T09:59:56;37.40;;;28.30;;
5742;SDS011;2896;53.500;10.020;2022-08-18T10:05:38;35.53;;;26.00;;
5742;SDS011;2896;53.500;10.020;2022-08-18T10:11:38;39.53;;;22.70;;
5742;SDS011;2896;53.500;10.020;2022-08-18T10:14:21;28.47;;;23.37;;
5742;SDS011;2896;53.500;10.020;2022-08-18T10:17:10;23.83;;;19.60;;
5742;SDS011;2896;53.500;10.020;2022-08-18T10:19:49;34.10;;;24.30;;
5742;SDS011;2896;53.500;10.020;2022-08-18T10:22:34;30.47;;;23.47;;
5742;SDS011;2896;53.500;10.020;2022-08-18T10:25:04;34.37;;;25.10;;
5742;SDS011;2896;53.500;10.020;2022-08-18T10:27:35;29.17;;;22.73;;
5742;SDS011;2896;53.500;10.020;2022-08-18T10:33:10;36.17;;;23.47;;
5742;SDS011;2896;53.500;10.020;2022-08-18T10:38:43;30.33;;;21.80;;
5742;SDS011;2896;53.500;10.020;2022-08-18T10:41:22;29.97;;;22.20;;
5742;SDS011;2896;53.500;10.020;2022-08-18T10:43:52;31.77;;;20.27;;
5742;SDS011;2896;53.500;10.020;2022-08-18T10:46:20;30.20;;;22.37;;
5742;SDS011;2896;53.500;10.020;2022-08-18T10:48:59;33.13;;;21.53;;
5742;SDS011;2896;53.500;10.020;2022-08-18T10:51:44;22.20;;;17.87;;
5742;SDS011;2896;53.500;10.020;2022-08-18T10:54:22;22.60;;;18.03;;
5742;SDS011;2896;53.500;10.020;2022-08-18T10:57:02;21.70;;;19.00;;
5742;SDS011;2896;53.500;10.020;2022-08-18T10:59:38;30.23;;;20.67;;
5742;SDS011;2896;53.500;10.020;2022-08-18T11:02:20;30.93;;;21.13;;
5742;SDS011;2896;53.500;10.020;2022-08-18T11:05:11;24.90;;;17.93;;
5742;SDS011;2896;53.500;10.020;2022-08-18T11:07:44;19.10;;;17.13;;
5742;SDS011;2896;53.500;10.020;2022-08-18T11:10:15;17.40;;;15.60;;
5742;SDS011;2896;53.500;10.020;2022-08-18T11:12:50;21.57;;;17.50;;
5742;SDS011;2896;53.500;10.020;2022-08-18T11:15:26;20.87;;;18.50;;
5742;SDS011;2896;53.500;10.020;2022-08-18T11:18:05;22.33;;;18.23;;
5742;SDS011;2896;53.500;10.020;2022-08-18T11:20:42;24.70;;;18.77;;
5742;SDS011;2896;53.500;10.020;2022-08-18T11:23:11;18.53;;;16.70;;
5742;SDS011;2896;53.500;10.020;2022-08-18T11:25:40;15.97;;;13.60;;
5742;SDS011;2896;53.500;10.020;2022-08-18T11:28:13;15.93;;;13.47;;
5742;SDS011;2896;53.500;10.020;2022-08-18T11:30:41;17.83;;;14.00;;
5742;SDS011;2896;53.500;10.020;2022-08-18T11:33:12;21.40;;;17.53;;
5742;SDS011;2896;53.500;10.020;2022-08-18T11:35:44;16.77;;;15.00;;
5742;SDS011;2896;53.500;10.020;2022-08-18T11:38:13;16.97;;;15.20;;
5742;SDS011;2896;53.500;10.020;2022-08-18T11:40:42;13.23;;;11.93;;
5742;SDS011;2896;53.500;10.020;2022-08-18T11:43:10;18.23;;;16.53;;
5742;SDS011;2896;53.500;10.020;2022-08-18T11:45:50;27.13;;;16.97;;
5742;SDS011;2896;53.500;10.020;2022-08-18T11:48:19;20.23;;;15.63;;
5742;SDS011;2896;53.500;10.020;2022-08-18T11:50:49;18.10;;;15.57;;
5742;SDS011;2896;53.500;10.020;2022-08-18T11:53:36;24.20;;;15.43;;
5742;SDS011;2896;53.500;10.020;2022-08-18T11:56:13;22.60;;;16.87;;
5742;SDS011;2896;53.500;10.020;2022-08-18T11:58:43;12.70;;;10.33;;
5742;SDS011;2896;53.500;10.020;2022-08-18T12:04:07;17.47;;;13.33;;
5742;SDS011;2896;53.500;10.020;2022-08-18T12:06:40;21.40;;;16.47;;
5742;SDS011;2896;53.500;10.020;2022-08-18T12:09:24;15.97;;;14.17;;
5742;SDS011;2896;53.500;10.020;2022-08-18T12:11:58;19.70;;;14.23;;
5742;SDS011;2896;53.500;10.020;2022-08-18T12:14:28;13.60;;;10.90;;
5742;SDS011;2896;53.500;10.020;2022-08-18T12:16:57;22.40;;;11.87;;
5742;SDS011;2896;53.500;10.020;2022-08-18T12:19:24;15.80;;;11.63;;
5742;SDS011;2896;53.500;10.020;2022-08-18T12:21:56;14.20;;;10.80;;
5742;SDS011;2896;53.500;10.020;2022-08-18T12:24:25;11.33;;;8.87;;
5742;SDS011;2896;53.500;10.020;2022-08-18T12:26:53;12.03;;;10.27;;
5742;SDS011;2896;53.500;10.020;2022-08-18T12:29:22;11.67;;;9.30;;
5742;SDS011;2896;53.500;10.020;2022-08-18T12:31:50;11.07;;;9.20;;
5742;SDS011;2896;53.500;10.020;2022-08-18T12:34:18;10.57;;;8.57;;
5742;SDS011;2896;53.500;10.020;2022-08-18T12:36:47;10.03;;;9.20;;
5742;SDS011;2896;53.500;10.020;2022-08-18T12:39:16;10.07;;;8.30;;
5742;SDS011;2896;53.500;10.020;2022-08-18T12:41:42;11.00;;;9.90;;
5742;SDS011;2896;53.500;10.020;2022-08-18T12:44:09;12.03;;;8.60;;
5742;SDS011;2896;53.500;10.020;2022-08-18T12:46:37;11.67;;;10.03;;
5742;SDS011;2896;53.500;10.020;2022-08-18T12:49:05;14.00;;;10.23;;
5742;SDS011;2896;53.500;10.020;2022-08-18T12:51:39;12.20;;;9.53;;
5742;SDS011;2896;53.500;10.020;2022-08-18T12:54:05;12.50;;;9.53;;
5742;SDS011;2896;53.500;10.020;2022-08-18T12:56:32;15.47;;;10.23;;
5742;SDS011;2896;53.500;10.020;2022-08-18T12:59:00;10.90;;;9.70;;
5742;SDS011;2896;53.500;10.020;2022-08-18T13:01:27;8.53;;;7.83;;
5742;SDS011;2896;53.500;10.020;2022-08-18T13:03:55;8.73;;;7.83;;
5742;SDS011;2896;53.500;10.020;2022-08-18T13:06:23;16.80;;;9.30;;
5742;SDS011;2896;53.500;10.020;2022-08-18T13:08:50;10.80;;;8.37;;
5742;SDS011;2896;53.500;10.020;2022-08-18T13:11:19;14.30;;;7.60;;
5742;SDS011;2896;53.500;10.020;2022-08-18T13:13:47;7.80;;;7.10;;
5742;SDS011;2896;53.500;10.020;2022-08-18T13:16:15;8.43;;;7.40;;
5742;SDS011;2896;53.500;10.020;2022-08-18T13:18:42;9.83;;;7.67;;
5742;SDS011;2896;53.500;10.020;2022-08-18T13:21:11;8.67;;;7.70;;
5742;SDS011;2896;53.500;10.020;2022-08-18T13:23:40;11.53;;;8.50;;
5742;SDS011;2896;53.500;10.020;2022-08-18T13:26:08;9.50;;;8.27;;
5742;SDS011;2896;53.500;10.020;2022-08-18T13:28:41;11.43;;;7.53;;
5742;SDS011;2896;53.500;10.020;2022-08-18T13:31:08;9.10;;;7.90;;
5742;SDS011;2896;53.500;10.020;2022-08-18T13:33:35;6.83;;;6.23;;
5742;SDS011;2896;53.500;10.020;2022-08-18T13:36:01;8.90;;;7.03;;
5742;SDS011;2896;53.500;10.020;2022-08-18T13:38:30;10.90;;;8.03;;
5742;SDS011;2896;53.500;10.020;2022-08-18T13:40:57;14.80;;;7.10;;
5742;SDS011;2896;53.500;10.020;2022-08-18T13:43:26;10.40;;;8.00;;
5742;SDS011;2896;53.500;10.020;2022-08-18T13:45:56;7.43;;;6.83;;
5742;SDS011;2896;53.500;10.020;2022-08-18T13:48:23;41.83;;;8.33;;
5742;SDS011;2896;53.500;10.020;2022-08-18T13:50:51;10.90;;;8.20;;
5742;SDS011;2896;53.500;10.020;2022-08-18T13:53:19;16.57;;;9.30;;
5742;SDS011;2896;53.500;10.020;2022-08-18T13:55:47;7.40;;;6.73;;
5742;SDS011;2896;53.500;10.020;2022-08-18T13:58:15;11.20;;;8.27;;
5742;SDS011;2896;53.500;10.020;2022-08-18T14:00:42;6.73;;;5.80;;
5742;SDS011;2896;53.500;10.020;2022-08-18T14:03:09;7.20;;;6.60;;
5742;SDS011;2896;53.500;10.020;2022-08-18T14:05:37;7.73;;;7.13;;
5742;SDS011;2896;53.500;10.020;2022-08-18T14:08:03;13.13;;;8.13;;
5742;SDS011;2896;53.500;10.020;2022-08-18T14:10:30;6.90;;;6.30;;
5742;SDS011;2896;53.500;10.020;2022-08-18T14:12:59;11.37;;;8.57;;
5742;SDS011;2896;53.500;10.020;2022-08-18T14:15:26;8.00;;;7.37;;
5742;SDS011;2896;53.500;10.020;2022-08-18T14:17:55;8.20;;;7.07;;
5742;SDS011;2896;53.500;10.020;2022-08-18T14:20:22;17.00;;;7.87;;
5742;SDS011;2896;53.500;10.020;2022-08-18T14:23:06;7.40;;;6.80;;
5742;SDS011;2896;53.500;10.020;2022-08-18T14:25:50;9.50;;;6.80;;
5742;SDS011;2896;53.500;10.020;2022-08-18T14:28:36;11.53;;;7.53;;
5742;SDS011;2896;53.500;10.020;2022-08-18T14:31:02;10.30;;;7.97;;
5742;SDS011;2896;53.500;10.020;2022-08-18T14:33:29;11.77;;;7.70;;
5742;SDS011;2896;53.500;10.020;2022-08-18T14:35:57;12.77;;;7.77;;
5742;SDS011;2896;53.500;10.020;2022-08-18T14:38:23;11.90;;;8.90;;
5742;SDS011;2896;53.500;10.020;2022-08-18T14:40:50;19.83;;;10.53;;
5742;SDS011;2896;53.500;10.020;2022-08-18T14:43:18;11.93;;;10.60;;
5742;SDS011;2896;53.500;10.020;2022-08-18T14:45:47;14.30;;;9.43;;
5742;SDS011;2896;53.500;10.020;2022-08-18T14:48:15;12.07;;;9.60;;
5742;SDS011;2896;53.500;10.020;2022-08-18T14:50:44;15.40;;;8.80;;
5742;SDS011;2896;53.500;10.020;2022-08-18T14:53:12;9.70;;;8.90;;
5742;SDS011;2896;53.500;10.020;2022-08-18T14:55:39;10.80;;;9.77;;
5742;SDS011;2896;53.500;10.020;2022-08-18T14:58:07;12.53;;;9.70;;
5742;SDS011;2896;53.500;10.020;2022-08-18T15:00:33;12.33;;;10.23;;
5742;SDS011;2896;53.500;10.020;2022-08-18T15:03:02;13.10;;;10.13;;
5742;SDS011;2896;53.500;10.020;2022-08-18T15:05:30;13.70;;;10.10;;
5742;SDS011;2896;53.500;10.020;2022-08-18T15:07:57;10.63;;;9.27;;
5742;SDS011;2896;53.500;10.020;2022-08-18T15:10:27;10.23;;;8.80;;
5742;SDS011;2896;53.500;10.020;2022-08-18T15:12:54;11.77;;;9.97;;
5742;SDS011;2896;53.500;10.020;2022-08-18T15:15:22;10.10;;;9.17;;
5742;SDS011;2896;53.500;10.020;2022-08-18T15:17:49;20.53;;;9.70;;
5742;SDS011;2896;53.500;10.020;2022-08-18T15:20:18;11.10;;;9.93;;
5742;SDS011;2896;53.500;10.020;2022-08-18T15:22:45;11.43;;;10.10;;
5742;SDS011;2896;53.500;10.020;2022-08-18T15:25:30;14.40;;;11.00;;
5742;SDS011;2896;53.500;10.020;2022-08-18T15:28:06;11.93;;;10.37;;
5742;SDS011;2896;53.500;10.020;2022-08-18T15:30:33;11.83;;;10.73;;
5742;SDS011;2896;53.500;10.020;2022-08-18T15:33:02;9.70;;;8.80;;
5742;SDS011;2896;53.500;10.020;2022-08-18T15:35:31;14.40;;;10.50;;